Time;durP1;ratioP1;P1;durP2;ratioP2;P2;SDS_P1;SDS_P2;PMS_P1;PMS_P2;Temp;Humidity;BMP_temperature;BMP_pressure;BME280_temperature;BME280_humidity;BME280_pressure;Samples;Min_cycle;Max_cycle;Signal;HPM_P1;HPM_P2
2021/12/05 00:24:39;;;;;;;1.77;1.17;;;;;;;;;;5033025;28;20193;-77
2021/12/05 00:27:52;;;;;;;1.63;1.27;;;;;;;;;;5016142;28;20190;-77
2021/12/05 00:34:28;;;;;;;2.13;1.30;;;;;;;;;;5005609;28;20193;-77
2021/12/05 00:38:15;;;;;;;2.40;1.20;;;;;;;;;;5004520;28;20193;-78
2021/12/05 00:45:19;;;;;;;1.90;1.43;;;;;;;;;;5017547;28;20216;-77
2021/12/05 01:08:20;;;;;;;3.70;1.90;;;;;;;;;;4994850;28;20560;-78
2021/12/05 01:11:48;;;;;;;1.60;1.50;;;;;;;;;;4991608;28;20229;-79
2021/12/05 01:18:05;;;;;;;2.90;1.47;;;;;;;;;;5003076;28;20179;-78
2021/12/05 01:21:16;;;;;;;2.83;1.50;;;;;;;;;;5013267;28;20225;-78
2021/12/05 01:27:48;;;;;;;3.27;1.20;;;;;;;;;;5020727;28;20196;-77
2021/12/05 01:31:38;;;;;;;3.67;1.37;;;;;;;;;;5022115;28;20588;-78
2021/12/05 01:34:38;;;;;;;3.10;1.40;;;;;;;;;;5030708;28;20192;-77
2021/12/05 01:38:01;;;;;;;7.80;1.93;;;;;;;;;;5017307;28;20596;-77
2021/12/05 01:51:15;;;;;;;5.97;1.43;;;;;;;;;;5022552;28;20588;-77
2021/12/05 02:08:00;;;;;;;3.30;1.23;;;;;;;;;;5024889;28;20599;-77
2021/12/05 02:11:21;;;;;;;3.70;1.40;;;;;;;;;;5020308;28;20640;-77
2021/12/05 02:41:27;;;;;;;3.63;1.03;;;;;;;;;;5006272;28;21219;-77
2021/12/05 02:44:32;;;;;;;4.67;1.27;;;;;;;;;;5028062;28;20584;-77
2021/12/05 02:47:38;;;;;;;7.27;1.20;;;;;;;;;;5024717;28;20584;-77
2021/12/05 02:50:44;;;;;;;5.33;1.00;;;;;;;;;;5025916;28;20598;-77
2021/12/05 02:54:01;;;;;;;3.37;1.17;;;;;;;;;;5011894;28;20627;-78
2021/12/05 02:57:09;;;;;;;3.37;1.17;;;;;;;;;;5011119;28;21150;-78
2021/12/05 03:00:35;;;;;;;5.47;1.10;;;;;;;;;;5014709;28;20620;-77
2021/12/05 03:03:40;;;;;;;3.63;1.20;;;;;;;;;;4998025;28;20929;-77
2021/12/05 03:06:55;;;;;;;4.67;1.23;;;;;;;;;;4994595;28;20592;-77
2021/12/05 03:10:00;;;;;;;2.90;1.37;;;;;;;;;;5008594;28;20600;-77
2021/12/05 03:13:05;;;;;;;4.03;1.70;;;;;;;;;;5015391;28;20580;-77
2021/12/05 03:16:12;;;;;;;5.20;1.30;;;;;;;;;;5013854;28;20623;-77
2021/12/05 03:19:17;;;;;;;2.90;0.90;;;;;;;;;;5007781;28;20616;-77
2021/12/05 03:22:21;;;;;;;4.70;0.93;;;;;;;;;;5016873;28;20651;-77
2021/12/05 03:25:26;;;;;;;1.87;1.00;;;;;;;;;;4994128;28;20545;-77
2021/12/05 03:28:30;;;;;;;3.20;1.30;;;;;;;;;;5022514;28;20583;-77
2021/12/05 03:31:35;;;;;;;3.83;1.30;;;;;;;;;;5025053;28;20627;-77
2021/12/05 03:34:40;;;;;;;2.47;1.23;;;;;;;;;;5004434;28;21172;-77
2021/12/05 03:37:46;;;;;;;3.53;1.03;;;;;;;;;;5017559;28;20537;-77
2021/12/05 03:40:51;;;;;;;4.30;1.30;;;;;;;;;;5025019;28;20663;-78
2021/12/05 03:43:56;;;;;;;5.03;1.20;;;;;;;;;;5024010;28;20608;-77
2021/12/05 03:47:05;;;;;;;3.70;1.30;;;;;;;;;;5027880;28;20596;-77
2021/12/05 03:50:13;;;;;;;1.87;1.00;;;;;;;;;;5013675;28;21140;-77
2021/12/05 03:53:19;;;;;;;6.77;1.10;;;;;;;;;;5005107;28;20601;-77
2021/12/05 03:56:23;;;;;;;4.10;2.20;;;;;;;;;;5013727;28;20544;-77
2021/12/05 03:59:28;;;;;;;4.27;2.20;;;;;;;;;;5020026;28;20628;-77
2021/12/05 04:02:33;;;;;;;2.70;1.30;;;;;;;;;;5015702;28;20643;-77
2021/12/05 04:05:39;;;;;;;1.20;1.00;;;;;;;;;;4996128;28;20592;-78
2021/12/05 04:08:45;;;;;;;4.03;1.17;;;;;;;;;;5012154;28;20592;-78
2021/12/05 04:12:01;;;;;;;2.87;1.17;;;;;;;;;;4993831;28;21192;-77
2021/12/05 04:15:12;;;;;;;2.03;1.13;;;;;;;;;;5001188;28;20623;-77
2021/12/05 04:18:17;;;;;;;4.60;1.30;;;;;;;;;;5023598;28;20606;-78
2021/12/05 04:21:22;;;;;;;1.30;1.10;;;;;;;;;;5024690;28;20639;-77
2021/12/05 04:24:27;;;;;;;3.13;1.40;;;;;;;;;;5004156;28;20592;-77
2021/12/05 04:27:31;;;;;;;2.17;1.00;;;;;;;;;;5009315;28;21159;-77
2021/12/05 04:30:36;;;;;;;2.93;1.17;;;;;;;;;;5010389;28;20608;-77
2021/12/05 04:33:41;;;;;;;1.60;1.00;;;;;;;;;;5006683;28;20585;-78
2021/12/05 04:36:46;;;;;;;2.60;1.17;;;;;;;;;;5024355;28;20600;-77
2021/12/05 04:39:51;;;;;;;2.13;1.20;;;;;;;;;;5028504;28;20636;-77
2021/12/05 04:42:55;;;;;;;0.97;0.90;;;;;;;;;;5005145;28;20636;-77
2021/12/05 04:46:00;;;;;;;3.67;1.37;;;;;;;;;;5004020;28;20569;-77
2021/12/05 04:49:08;;;;;;;2.50;1.70;;;;;;;;;;4995845;28;20580;-78
2021/12/05 04:52:14;;;;;;;3.47;1.40;;;;;;;;;;5021564;28;20635;-77
2021/12/05 04:55:20;;;;;;;3.70;1.20;;;;;;;;;;5013260;28;20575;-77
2021/12/05 04:58:25;;;;;;;2.80;1.20;;;;;;;;;;5033892;28;20560;-77
2021/12/05 05:01:30;;;;;;;3.10;1.00;;;;;;;;;;5012353;28;20615;-77
2021/12/05 05:04:42;;;;;;;3.47;1.27;;;;;;;;;;5035944;28;20554;-77
2021/12/05 05:07:46;;;;;;;1.60;1.10;;;;;;;;;;5023125;28;20540;-77
2021/12/05 05:10:51;;;;;;;3.63;1.10;;;;;;;;;;5023972;28;20580;-77
2021/12/05 05:13:55;;;;;;;3.30;1.30;;;;;;;;;;5024061;28;20599;-77
2021/12/05 05:16:59;;;;;;;2.73;1.33;;;;;;;;;;5047835;23;20680;-87
2021/12/05 05:20:13;;;;;;;3.10;1.10;;;;;;;;;;4981101;28;20648;-88
2021/12/05 05:26:56;;;;;;;3.03;1.13;;;;;;;;;;4991434;28;20643;-87
2021/12/05 05:43:36;;;;;;;1.83;1.23;;;;;;;;;;5012895;28;20938;-88
2021/12/05 05:47:00;;;;;;;2.63;1.20;;;;;;;;;;4988666;28;20644;-86
2021/12/05 05:50:04;;;;;;;3.43;0.90;;;;;;;;;;4981229;28;20585;-87
2021/12/05 05:53:09;;;;;;;4.93;1.10;;;;;;;;;;4993341;28;20596;-86
2021/12/05 05:56:19;;;;;;;4.17;1.07;;;;;;;;;;4993498;28;20623;-87
2021/12/05 05:59:39;;;;;;;2.40;1.10;;;;;;;;;;4977810;28;20597;-87
2021/12/05 06:06:10;;;;;;;4.70;1.20;;;;;;;;;;5003729;28;20656;-88
2021/12/05 06:09:15;;;;;;;2.57;1.30;;;;;;;;;;4980735;28;20593;-88
2021/12/05 06:12:19;;;;;;;3.57;0.90;;;;;;;;;;4997569;28;20589;-87
2021/12/05 06:15:25;;;;;;;4.10;1.17;;;;;;;;;;4977422;28;20592;-88
2021/12/05 06:18:29;;;;;;;2.00;0.87;;;;;;;;;;4990006;28;20600;-87
2021/12/05 06:21:33;;;;;;;2.33;1.03;;;;;;;;;;4986361;28;20632;-87
2021/12/05 06:24:37;;;;;;;3.00;1.10;;;;;;;;;;4991704;28;20596;-87
2021/12/05 06:27:42;;;;;;;2.93;1.07;;;;;;;;;;4987261;28;21247;-87
2021/12/05 06:30:54;;;;;;;2.00;1.00;;;;;;;;;;4977657;28;21156;-87
2021/12/05 06:46:53;;;;;;;2.03;1.13;;;;;;;;;;5017741;28;20631;-87
2021/12/05 06:49:57;;;;;;;6.03;1.50;;;;;;;;;;5015717;28;20588;-86
2021/12/05 06:53:06;;;;;;;4.63;1.20;;;;;;;;;;4993478;28;20922;-85
2021/12/05 06:56:10;;;;;;;1.60;1.00;;;;;;;;;;4993490;28;20647;-85
2021/12/05 06:59:15;;;;;;;1.67;1.07;;;;;;;;;;4990966;28;20589;-86
2021/12/05 07:02:21;;;;;;;3.70;1.13;;;;;;;;;;4994900;28;20934;-85
2021/12/05 07:08:44;;;;;;;4.70;1.57;;;;;;;;;;4993100;28;20905;-86
2021/12/05 07:15:01;;;;;;;4.88;2.22;;;;;;;;;;4994140;28;21066;-91
2021/12/05 07:24:49;;;;;;;2.63;1.93;;;;;;;;;;5014715;28;20593;-89
2021/12/05 07:41:53;;;;;;;4.07;3.53;;;;;;;;;;5003336;28;20624;-89
2021/12/05 07:45:01;;;;;;;5.07;2.87;;;;;;;;;;5003437;28;20545;-90
2021/12/05 07:48:11;;;;;;;6.43;3.03;;;;;;;;;;5002863;28;20647;-89
2021/12/05 07:54:37;;;;;;;11.50;2.40;;;;;;;;;;5014691;28;21084;-90
2021/12/05 07:58:20;;;;;;;3.17;2.40;;;;;;;;;;5011200;28;20655;-90
2021/12/05 08:15:10;;;;;;;114.93;54.83;;;;;;;;;;5010640;28;20569;-89
2021/12/05 08:18:14;;;;;;;85.43;41.27;;;;;;;;;;5010744;28;20632;-89
2021/12/05 08:21:18;;;;;;;160.40;77.93;;;;;;;;;;4987788;28;21199;-88
2021/12/05 08:24:24;;;;;;;350.57;153.50;;;;;;;;;;4987872;28;20611;-89
2021/12/05 08:27:29;;;;;;;172.67;84.17;;;;;;;;;;4999201;28;20663;-88
2021/12/05 08:30:34;;;;;;;156.50;65.30;;;;;;;;;;5001166;28;20961;-88
2021/12/05 09:21:03;;;;;;;9.10;7.23;;;;;;;;;;5013047;28;20185;-89
2021/12/05 09:24:34;;;;;;;4.00;1.90;;;;;;;;;;5024614;28;20173;-88
2021/12/05 10:12:55;;;;;;;7.20;3.60;;;;;;;;;;4972362;28;20205;-90
2021/12/05 10:16:26;;;;;;;3.77;2.57;;;;;;;;;;5013236;28;20229;-90
2021/12/05 10:20:14;;;;;;;4.97;2.40;;;;;;;;;;4994153;28;20178;-89
2021/12/05 10:27:09;;;;;;;2.07;1.30;;;;;;;;;;5004838;28;20217;-89
2021/12/05 10:33:52;;;;;;;3.70;1.70;;;;;;;;;;5003045;28;20186;-88
2021/12/05 10:37:17;;;;;;;1.80;1.27;;;;;;;;;;4989467;28;20213;-87
2021/12/05 10:40:34;;;;;;;3.40;1.20;;;;;;;;;;4999813;28;20528;-87
2021/12/05 10:43:38;;;;;;;2.60;1.53;;;;;;;;;;4981467;28;20536;-88
2021/12/05 10:46:48;;;;;;;3.07;1.43;;;;;;;;;;4997922;28;20217;-88
2021/12/05 10:49:52;;;;;;;3.93;1.30;;;;;;;;;;4978568;28;20178;-88
2021/12/05 10:53:34;;;;;;;2.57;1.30;;;;;;;;;;4989970;28;20185;-89
2021/12/05 10:56:44;;;;;;;4.20;1.30;;;;;;;;;;4997920;28;20577;-88
2021/12/05 10:59:48;;;;;;;7.17;3.80;;;;;;;;;;4990180;28;20206;-88
2021/12/05 11:02:53;;;;;;;3.50;1.80;;;;;;;;;;4986506;28;20593;-87
2021/12/05 11:05:58;;;;;;;5.03;1.70;;;;;;;;;;4989869;28;20201;-88
2021/12/05 11:09:09;;;;;;;1.90;1.33;;;;;;;;;;4993068;28;20194;-88
2021/12/05 11:12:24;;;;;;;2.47;1.03;;;;;;;;;;4978127;28;20924;-88
2021/12/05 11:15:34;;;;;;;3.47;1.40;;;;;;;;;;4990053;28;20205;-88
2021/12/05 11:18:43;;;;;;;3.70;1.20;;;;;;;;;;4969978;28;20528;-87
2021/12/05 11:21:57;;;;;;;2.40;1.20;;;;;;;;;;4978992;28;20207;-89
2021/12/05 11:25:06;;;;;;;5.83;1.13;;;;;;;;;;4968826;28;20202;-88
2021/12/05 11:28:11;;;;;;;2.70;1.27;;;;;;;;;;4956140;28;20191;-88
2021/12/05 11:31:30;;;;;;;2.73;1.33;;;;;;;;;;4950203;28;20191;-87
2021/12/05 11:34:34;;;;;;;1.83;1.30;;;;;;;;;;4961428;28;20183;-87
2021/12/05 11:37:59;;;;;;;4.00;1.40;;;;;;;;;;4950196;28;20218;-85
2021/12/05 11:41:10;;;;;;;4.43;1.40;;;;;;;;;;4958891;28;20659;-87
2021/12/05 11:44:21;;;;;;;3.13;1.40;;;;;;;;;;4967034;28;20187;-87
2021/12/05 11:47:25;;;;;;;3.47;1.27;;;;;;;;;;4950304;28;20226;-86
2021/12/05 11:50:37;;;;;;;3.57;1.20;;;;;;;;;;4967331;28;20562;-86
2021/12/05 11:53:45;;;;;;;3.60;1.40;;;;;;;;;;4980943;28;20178;-87
2021/12/05 11:57:00;;;;;;;4.13;1.40;;;;;;;;;;4969734;28;20214;-86
2021/12/05 12:00:14;;;;;;;3.20;1.20;;;;;;;;;;4956999;28;20542;-87
2021/12/05 12:03:35;;;;;;;4.07;1.30;;;;;;;;;;4962045;28;20211;-87
2021/12/05 12:06:44;;;;;;;3.13;1.23;;;;;;;;;;4952478;28;20222;-86
2021/12/05 12:09:53;;;;;;;2.33;1.50;;;;;;;;;;4953013;28;20286;-85
2021/12/05 12:13:03;;;;;;;4.67;3.00;;;;;;;;;;4981247;28;20179;-87
2021/12/05 12:16:12;;;;;;;4.03;1.70;;;;;;;;;;4955888;28;20221;-87
2021/12/05 12:19:21;;;;;;;4.70;3.53;;;;;;;;;;4970428;28;20183;-87
2021/12/05 12:22:27;;;;;;;6.10;2.70;;;;;;;;;;4978108;28;20213;-87
2021/12/05 12:25:36;;;;;;;4.63;1.70;;;;;;;;;;4989009;28;20190;-87
2021/12/05 12:28:41;;;;;;;2.70;1.23;;;;;;;;;;4988459;28;20209;-87
2021/12/05 12:31:48;;;;;;;3.10;1.20;;;;;;;;;;4988283;28;20174;-86
2021/12/05 12:35:27;;;;;;;2.70;1.37;;;;;;;;;;4988583;28;20198;-86
2021/12/05 12:38:30;;;;;;;3.37;1.40;;;;;;;;;;4988503;28;20749;-85
2021/12/05 12:41:35;;;;;;;5.83;1.77;;;;;;;;;;4988169;28;20686;-87
2021/12/05 12:45:20;;;;;;;4.50;1.43;;;;;;;;;;4989203;28;20197;-86
2021/12/05 12:48:28;;;;;;;2.37;1.50;;;;;;;;;;4988640;28;20193;-86
2021/12/05 12:51:38;;;;;;;2.60;1.60;;;;;;;;;;4999745;28;20173;-86
2021/12/05 12:54:48;;;;;;;3.73;1.70;;;;;;;;;;4987745;28;20201;-87
2021/12/05 12:57:52;;;;;;;3.33;2.40;;;;;;;;;;4988504;28;20685;-85
2021/12/05 13:01:00;;;;;;;3.40;2.07;;;;;;;;;;4988039;28;20181;-87
2021/12/05 13:10:59;;;;;;;5.33;1.57;;;;;;;;;;4988633;28;20185;-84
2021/12/05 13:14:05;;;;;;;3.43;1.60;;;;;;;;;;4988667;28;20558;-85
2021/12/05 13:17:10;;;;;;;3.13;1.20;;;;;;;;;;4965552;28;20718;-85
2021/12/05 13:20:21;;;;;;;3.97;1.53;;;;;;;;;;4968721;28;20186;-84
2021/12/05 13:23:37;;;;;;;3.17;1.30;;;;;;;;;;4954645;28;20369;-84
2021/12/05 13:26:43;;;;;;;4.87;1.40;;;;;;;;;;4983674;28;20227;-85
2021/12/05 13:29:51;;;;;;;2.63;1.70;;;;;;;;;;4988361;28;20190;-85
2021/12/05 13:33:16;;;;;;;6.23;2.50;;;;;;;;;;4971257;28;20539;-85
2021/12/05 13:36:29;;;;;;;12.17;6.20;;;;;;;;;;4980821;28;20225;-86
2021/12/05 13:39:48;;;;;;;8.07;4.17;;;;;;;;;;4979540;28;20194;-85
2021/12/05 13:43:05;;;;;;;2.40;1.47;;;;;;;;;;4971682;28;20568;-85
2021/12/05 13:46:33;;;;;;;3.00;1.40;;;;;;;;;;4952873;28;20230;-85
2021/12/05 13:49:38;;;;;;;2.30;1.43;;;;;;;;;;4958903;28;20179;-85
2021/12/05 13:52:58;;;;;;;5.43;1.70;;;;;;;;;;4971712;23;1061037;-87
2021/12/05 13:56:08;;;;;;;4.07;1.80;;;;;;;;;;4993543;28;20189;-88
2021/12/05 13:59:13;;;;;;;4.83;2.17;;;;;;;;;;5005437;28;20189;-86
2021/12/05 14:02:18;;;;;;;12.70;5.73;;;;;;;;;;4982767;28;20690;-86
2021/12/05 14:05:29;;;;;;;17.00;8.30;;;;;;;;;;4993931;28;20177;-86
2021/12/05 14:08:39;;;;;;;10.60;5.57;;;;;;;;;;4993890;28;20630;-86
2021/12/05 14:12:13;;;;;;;9.17;5.20;;;;;;;;;;5005210;28;20630;-86
2021/12/05 14:15:18;;;;;;;4.93;3.10;;;;;;;;;;4982817;28;20178;-86
2021/12/05 14:18:23;;;;;;;6.43;3.20;;;;;;;;;;5004928;28;20185;-86
2021/12/05 14:21:28;;;;;;;8.50;3.80;;;;;;;;;;5004626;28;20661;-86
2021/12/05 14:24:36;;;;;;;9.93;3.23;;;;;;;;;;4993596;28;20173;-86
2021/12/05 14:27:48;;;;;;;6.93;3.10;;;;;;;;;;4993424;28;20194;-86
2021/12/05 14:30:55;;;;;;;4.27;2.73;;;;;;;;;;4993855;28;20185;-86
2021/12/05 14:34:00;;;;;;;4.30;2.27;;;;;;;;;;4993267;28;20182;-86
2021/12/05 14:37:12;;;;;;;4.53;2.13;;;;;;;;;;5004958;28;20182;-85
2021/12/05 14:40:19;;;;;;;3.50;1.80;;;;;;;;;;4993427;28;20545;-85
2021/12/05 14:43:23;;;;;;;3.77;1.50;;;;;;;;;;5004317;28;20597;-85
2021/12/05 14:46:28;;;;;;;2.23;1.67;;;;;;;;;;5004737;28;20181;-85
2021/12/05 14:49:37;;;;;;;5.47;2.57;;;;;;;;;;5016119;28;20181;-85
2021/12/05 14:52:46;;;;;;;8.23;2.87;;;;;;;;;;4992650;28;20213;-85
2021/12/05 14:55:56;;;;;;;4.47;2.70;;;;;;;;;;4992876;28;20527;-85
2021/12/05 14:59:10;;;;;;;5.83;2.90;;;;;;;;;;4993007;28;20178;-85
2021/12/05 15:02:16;;;;;;;4.97;2.80;;;;;;;;;;4992837;28;20585;-86
2021/12/05 15:05:20;;;;;;;4.73;2.77;;;;;;;;;;4984778;28;20179;-86
2021/12/05 15:08:28;;;;;;;5.57;1.77;;;;;;;;;;4986565;28;20193;-86
2021/12/05 15:11:33;;;;;;;4.43;1.50;;;;;;;;;;4993537;28;20642;-86
2021/12/05 15:14:42;;;;;;;7.47;1.60;;;;;;;;;;4993714;28;20173;-84
2021/12/05 15:17:46;;;;;;;2.97;1.50;;;;;;;;;;4992436;28;20198;-86
2021/12/05 15:20:51;;;;;;;2.17;1.30;;;;;;;;;;5004094;28;20554;-86
2021/12/05 15:23:55;;;;;;;1.80;1.17;;;;;;;;;;5004176;28;20210;-85
2021/12/05 15:27:01;;;;;;;3.07;1.37;;;;;;;;;;4992585;28;20205;-86
2021/12/05 15:30:27;;;;;;;1.83;1.40;;;;;;;;;;4992147;28;20661;-86
2021/12/05 15:33:34;;;;;;;1.83;1.30;;;;;;;;;;4972520;28;20691;-86
2021/12/05 15:36:38;;;;;;;6.13;1.53;;;;;;;;;;4992264;28;20184;-86
2021/12/05 15:39:47;;;;;;;3.50;1.50;;;;;;;;;;4972921;28;20206;-86
2021/12/05 15:42:56;;;;;;;6.67;1.60;;;;;;;;;;5001120;28;20229;-86
2021/12/05 15:46:04;;;;;;;3.70;1.20;;;;;;;;;;4992046;28;20185;-86
2021/12/05 15:49:08;;;;;;;2.73;1.37;;;;;;;;;;5003350;28;20193;-86
2021/12/05 15:52:13;;;;;;;2.43;1.33;;;;;;;;;;5000622;28;20229;-88
2021/12/05 15:55:43;;;;;;;2.47;1.30;;;;;;;;;;4990323;28;20909;-87
2021/12/05 15:58:58;;;;;;;2.93;1.60;;;;;;;;;;5002493;28;20616;-87
2021/12/05 16:02:06;;;;;;;4.37;1.37;;;;;;;;;;5002261;28;21223;-87
2021/12/05 16:05:20;;;;;;;2.53;1.53;;;;;;;;;;4991012;28;20576;-87
2021/12/05 16:08:28;;;;;;;3.70;1.60;;;;;;;;;;4980537;28;20545;-87
2021/12/05 16:11:32;;;;;;;6.60;1.40;;;;;;;;;;4982579;28;20624;-87
2021/12/05 16:14:42;;;;;;;2.77;1.50;;;;;;;;;;4985154;28;20588;-87
2021/12/05 16:17:55;;;;;;;5.63;1.60;;;;;;;;;;4991429;28;20878;-87
2021/12/05 16:21:05;;;;;;;2.40;1.60;;;;;;;;;;4999041;28;20592;-87
2021/12/05 16:24:13;;;;;;;2.80;1.20;;;;;;;;;;4999826;28;20632;-87
2021/12/05 16:27:17;;;;;;;4.13;1.57;;;;;;;;;;4968771;28;20961;-87
2021/12/05 16:30:23;;;;;;;2.80;1.63;;;;;;;;;;4987503;28;20604;-87
2021/12/05 16:33:29;;;;;;;3.83;1.87;;;;;;;;;;4998140;28;20648;-87
2021/12/05 16:36:38;;;;;;;3.30;2.07;;;;;;;;;;4976895;28;20580;-87
2021/12/05 16:39:48;;;;;;;2.80;1.93;;;;;;;;;;4998144;28;20624;-87
2021/12/05 16:43:09;;;;;;;2.63;1.90;;;;;;;;;;4987263;28;20648;-86
2021/12/05 16:46:21;;;;;;;6.43;2.20;;;;;;;;;;4978633;28;20915;-86
2021/12/05 16:49:38;;;;;;;3.87;2.00;;;;;;;;;;4986676;28;20607;-85
2021/12/05 16:52:47;;;;;;;3.33;2.20;;;;;;;;;;4998171;28;20655;-87
2021/12/05 16:55:58;;;;;;;4.97;2.20;;;;;;;;;;4963615;28;21160;-87
2021/12/05 16:59:19;;;;;;;3.40;1.87;;;;;;;;;;4986711;28;20568;-87
2021/12/05 17:02:29;;;;;;;4.73;2.00;;;;;;;;;;4987113;28;20631;-87
2021/12/05 17:05:43;;;;;;;5.23;2.70;;;;;;;;;;4986860;28;20588;-87
2021/12/05 17:08:47;;;;;;;5.47;4.07;;;;;;;;;;4997950;28;20564;-87
2021/12/05 17:11:51;;;;;;;5.37;4.17;;;;;;;;;;4983521;28;20651;-87
2021/12/05 17:15:15;;;;;;;4.80;3.57;;;;;;;;;;4978035;28;20617;-87
2021/12/05 17:18:20;;;;;;;4.77;3.27;;;;;;;;;;4967211;28;20565;-87
2021/12/05 17:21:31;;;;;;;7.00;3.07;;;;;;;;;;4978330;28;20565;-86
2021/12/05 17:24:35;;;;;;;7.87;3.33;;;;;;;;;;4983643;28;20664;-87
2021/12/05 17:27:45;;;;;;;4.73;3.07;;;;;;;;;;4987571;28;20560;-86
2021/12/05 17:30:56;;;;;;;6.43;3.23;;;;;;;;;;4998125;28;20561;-86
2021/12/05 17:34:04;;;;;;;5.20;2.57;;;;;;;;;;4986873;28;20590;-88
2021/12/05 17:37:13;;;;;;;5.83;2.60;;;;;;;;;;4986154;28;20957;-87
2021/12/05 17:40:17;;;;;;;3.97;2.70;;;;;;;;;;4975331;28;20569;-87
2021/12/05 17:43:21;;;;;;;4.70;2.50;;;;;;;;;;4986315;28;20664;-87
2021/12/05 17:46:27;;;;;;;10.50;3.57;;;;;;;;;;4997510;28;20588;-87
2021/12/05 17:49:34;;;;;;;10.80;5.90;;;;;;;;;;4985865;28;20624;-87
2021/12/05 17:52:39;;;;;;;8.60;6.23;;;;;;;;;;4997040;28;21009;-88
2021/12/05 17:55:48;;;;;;;16.33;10.57;;;;;;;;;;4998115;28;20584;-86
2021/12/05 17:59:25;;;;;;;10.23;6.00;;;;;;;;;;4979270;28;21207;-86
2021/12/05 18:05:45;;;;;;;6.37;3.40;;;;;;;;;;4986155;28;20591;-86
2021/12/05 18:08:50;;;;;;;4.63;2.80;;;;;;;;;;4975120;28;20589;-86
2021/12/05 18:11:54;;;;;;;4.10;2.80;;;;;;;;;;4978601;28;20657;-87
2021/12/05 18:15:00;;;;;;;5.17;3.17;;;;;;;;;;4986130;28;20568;-87
2021/12/05 18:18:05;;;;;;;3.87;2.50;;;;;;;;;;4985973;28;20584;-87
2021/12/05 18:21:12;;;;;;;4.57;2.93;;;;;;;;;;5009293;28;20561;-86
2021/12/05 18:24:19;;;;;;;3.97;3.23;;;;;;;;;;4985541;28;20644;-86
2021/12/05 18:27:23;;;;;;;5.93;3.50;;;;;;;;;;4977453;28;20591;-86
2021/12/05 18:30:29;;;;;;;5.90;3.50;;;;;;;;;;4986503;28;20628;-86
2021/12/05 18:33:33;;;;;;;6.47;3.93;;;;;;;;;;4986213;28;21017;-87
2021/12/05 18:36:39;;;;;;;8.47;3.90;;;;;;;;;;4986362;28;20603;-86
2021/12/05 18:39:48;;;;;;;4.73;3.30;;;;;;;;;;4989968;28;20592;-86
2021/12/05 18:42:52;;;;;;;5.27;3.80;;;;;;;;;;5012078;28;20958;-87
2021/12/05 18:45:57;;;;;;;5.07;3.13;;;;;;;;;;4990160;28;21128;-86
2021/12/05 18:49:03;;;;;;;7.47;3.87;;;;;;;;;;4987953;28;20584;-87
2021/12/05 18:52:08;;;;;;;8.60;5.00;;;;;;;;;;4986219;28;20655;-86
2021/12/05 18:55:17;;;;;;;17.37;9.23;;;;;;;;;;4991592;28;20572;-87
2021/12/05 18:58:24;;;;;;;13.80;8.60;;;;;;;;;;4980767;28;20588;-87
2021/12/05 19:04:54;;;;;;;10.93;5.73;;;;;;;;;;4999663;28;20640;-87
2021/12/05 19:08:17;;;;;;;8.10;5.03;;;;;;;;;;4989179;28;20591;-87
2021/12/05 19:11:43;;;;;;;10.27;5.10;;;;;;;;;;5000268;28;20950;-87
2021/12/05 19:14:50;;;;;;;9.10;4.63;;;;;;;;;;4989833;28;20568;-87
2021/12/05 19:17:55;;;;;;;7.30;4.93;;;;;;;;;;4979617;28;20799;-86
2021/12/05 19:21:00;;;;;;;13.30;7.33;;;;;;;;;;4985933;28;20589;-87
2021/12/05 19:24:06;;;;;;;17.30;8.17;;;;;;;;;;4988484;28;20632;-87
2021/12/05 19:27:11;;;;;;;16.23;7.77;;;;;;;;;;4989088;28;20564;-87
2021/12/05 19:30:38;;;;;;;11.23;5.77;;;;;;;;;;4989603;28;20604;-87
2021/12/05 19:33:42;;;;;;;12.03;5.63;;;;;;;;;;4977418;28;20652;-86
2021/12/05 19:36:48;;;;;;;6.47;4.20;;;;;;;;;;5001835;28;20591;-87
2021/12/05 19:39:52;;;;;;;8.97;4.07;;;;;;;;;;4989366;28;20564;-86
2021/12/05 19:42:58;;;;;;;8.10;4.43;;;;;;;;;;4987872;28;20644;-86
2021/12/05 19:46:06;;;;;;;10.30;4.10;;;;;;;;;;4988072;28;20624;-86
2021/12/05 19:49:10;;;;;;;7.27;3.43;;;;;;;;;;4979124;28;21161;-87
2021/12/05 19:52:17;;;;;;;6.43;4.07;;;;;;;;;;4974307;28;20671;-87
2021/12/05 19:55:24;;;;;;;7.83;3.87;;;;;;;;;;4980603;28;20573;-87
2021/12/05 19:58:29;;;;;;;6.83;3.50;;;;;;;;;;4980032;28;20569;-87
2021/12/05 20:01:33;;;;;;;6.10;4.00;;;;;;;;;;4997648;28;20596;-87
2021/12/05 20:04:38;;;;;;;11.47;4.03;;;;;;;;;;4991761;28;20644;-86
2021/12/05 20:07:42;;;;;;;13.93;7.20;;;;;;;;;;4988771;28;20596;-87
2021/12/05 20:10:47;;;;;;;12.70;6.87;;;;;;;;;;4988880;28;20556;-86
2021/12/05 20:13:58;;;;;;;7.87;4.93;;;;;;;;;;4978887;28;20652;-86
2021/12/05 20:17:02;;;;;;;8.30;4.50;;;;;;;;;;4979901;28;20617;-87
2021/12/05 20:20:09;;;;;;;7.33;4.70;;;;;;;;;;4977377;28;20556;-87
2021/12/05 20:23:15;;;;;;;8.83;4.40;;;;;;;;;;4988072;28;20652;-87
2021/12/05 20:26:27;;;;;;;9.80;4.50;;;;;;;;;;4977759;28;20592;-86
2021/12/05 20:29:32;;;;;;;6.87;4.80;;;;;;;;;;4992537;28;20564;-86
2021/12/05 20:32:37;;;;;;;11.60;5.87;;;;;;;;;;4985762;28;20652;-87
2021/12/05 20:35:43;;;;;;;6.33;4.53;;;;;;;;;;4993728;28;20914;-87
2021/12/05 20:38:47;;;;;;;8.47;4.93;;;;;;;;;;4990650;28;20561;-87
2021/12/05 20:41:54;;;;;;;11.37;6.80;;;;;;;;;;4998644;28;20694;-87
2021/12/05 20:44:58;;;;;;;11.73;7.60;;;;;;;;;;4979241;28;21196;-87
2021/12/05 20:48:04;;;;;;;11.67;6.90;;;;;;;;;;4988381;28;20569;-87
2021/12/05 20:51:08;;;;;;;7.53;5.80;;;;;;;;;;4976133;28;20565;-86
2021/12/05 20:54:13;;;;;;;7.87;5.23;;;;;;;;;;4968217;28;21260;-87
2021/12/05 20:57:17;;;;;;;10.80;5.77;;;;;;;;;;4967618;28;20573;-87
2021/12/05 21:00:29;;;;;;;7.67;4.80;;;;;;;;;;5002048;28;20596;-87
2021/12/05 21:03:39;;;;;;;7.30;4.97;;;;;;;;;;4987464;28;20651;-87
2021/12/05 21:06:43;;;;;;;9.47;5.20;;;;;;;;;;4988716;28;20593;-87
2021/12/05 21:09:47;;;;;;;8.03;5.77;;;;;;;;;;4986776;28;20576;-87
2021/12/05 21:12:52;;;;;;;7.83;5.47;;;;;;;;;;4967178;28;20636;-86
2021/12/05 21:15:57;;;;;;;6.93;4.93;;;;;;;;;;4968393;28;20569;-86
2021/12/05 21:19:01;;;;;;;8.57;4.83;;;;;;;;;;4979713;28;20601;-87
2021/12/05 21:22:06;;;;;;;5.50;4.63;;;;;;;;;;4968083;28;20637;-87
2021/12/05 21:25:12;;;;;;;6.53;5.03;;;;;;;;;;4956486;28;20617;-87
2021/12/05 21:28:16;;;;;;;8.90;4.93;;;;;;;;;;4979093;28;20600;-86
2021/12/05 21:31:21;;;;;;;7.07;4.90;;;;;;;;;;4987845;28;20586;-86
2021/12/05 21:34:26;;;;;;;8.17;5.90;;;;;;;;;;4986215;28;20620;-87
2021/12/05 21:37:30;;;;;;;7.53;4.90;;;;;;;;;;4986243;28;20612;-86
2021/12/05 21:40:45;;;;;;;6.50;4.77;;;;;;;;;;4977959;28;20609;-87
2021/12/05 21:43:52;;;;;;;6.53;5.30;;;;;;;;;;4997348;28;20648;-87
2021/12/05 21:46:56;;;;;;;7.47;5.27;;;;;;;;;;4986514;28;20895;-86
2021/12/05 21:50:01;;;;;;;8.00;5.03;;;;;;;;;;4988751;28;20601;-86
2021/12/05 21:53:10;;;;;;;8.17;5.93;;;;;;;;;;4986125;28;20661;-86
2021/12/05 21:56:15;;;;;;;10.23;6.50;;;;;;;;;;5027932;23;20592;-86
2021/12/05 21:59:20;;;;;;;11.93;6.80;;;;;;;;;;4989850;28;20624;-87
2021/12/05 22:02:24;;;;;;;12.23;6.23;;;;;;;;;;4984985;28;20598;-86
2021/12/05 22:05:31;;;;;;;7.90;5.43;;;;;;;;;;4970635;28;20954;-86
2021/12/05 22:08:35;;;;;;;8.17;5.53;;;;;;;;;;4952338;28;20543;-86
2021/12/05 22:11:39;;;;;;;8.17;5.37;;;;;;;;;;4964396;28;20578;-86
2021/12/05 22:14:44;;;;;;;9.63;6.40;;;;;;;;;;4966633;28;20940;-87
2021/12/05 22:17:49;;;;;;;8.60;5.60;;;;;;;;;;4966606;28;20637;-87
2021/12/05 22:21:18;;;;;;;9.53;6.03;;;;;;;;;;4966357;28;20605;-87
2021/12/05 22:24:22;;;;;;;8.83;5.57;;;;;;;;;;4966607;28;20590;-87
2021/12/05 22:27:26;;;;;;;8.03;6.07;;;;;;;;;;4966603;28;20634;-87
2021/12/05 22:30:32;;;;;;;8.00;6.23;;;;;;;;;;4970616;28;20582;-87
2021/12/05 22:33:38;;;;;;;13.40;6.37;;;;;;;;;;4988885;28;20563;-86
2021/12/05 22:36:43;;;;;;;10.60;6.10;;;;;;;;;;4983329;28;20650;-87
2021/12/05 22:39:48;;;;;;;8.60;5.93;;;;;;;;;;4973638;28;20543;-87
2021/12/05 22:42:52;;;;;;;8.93;6.20;;;;;;;;;;4966764;28;20908;-88
2021/12/05 22:45:56;;;;;;;8.80;6.30;;;;;;;;;;4966758;28;21143;-86
2021/12/05 22:49:01;;;;;;;7.63;5.73;;;;;;;;;;4977588;28;20558;-87
2021/12/05 22:52:06;;;;;;;11.43;5.90;;;;;;;;;;4980997;28;20543;-87
2021/12/05 22:55:11;;;;;;;10.13;5.90;;;;;;;;;;4976447;28;20538;-87
2021/12/05 22:58:15;;;;;;;9.73;6.50;;;;;;;;;;4986949;28;21010;-87
2021/12/05 23:01:22;;;;;;;9.27;6.37;;;;;;;;;;4959062;29;20889;-87
2021/12/05 23:04:28;;;;;;;8.13;6.40;;;;;;;;;;4958839;29;20555;-87
2021/12/05 23:07:32;;;;;;;8.07;6.00;;;;;;;;;;4969257;28;20645;-86
2021/12/05 23:10:38;;;;;;;8.63;6.00;;;;;;;;;;4971868;28;20593;-86
2021/12/05 23:13:43;;;;;;;10.23;5.50;;;;;;;;;;4983316;28;20629;-86
2021/12/05 23:16:48;;;;;;;10.70;6.83;;;;;;;;;;4996216;28;20640;-86
2021/12/05 23:19:52;;;;;;;10.10;6.83;;;;;;;;;;4970336;28;20578;-87
2021/12/05 23:22:57;;;;;;;9.53;7.03;;;;;;;;;;4969026;28;20609;-86
2021/12/05 23:26:01;;;;;;;10.77;6.90;;;;;;;;;;4957583;28;20981;-86
2021/12/05 23:29:07;;;;;;;11.40;7.13;;;;;;;;;;4965794;28;20595;-87
2021/12/05 23:32:16;;;;;;;12.77;7.47;;;;;;;;;;4974360;28;20620;-87
2021/12/05 23:35:21;;;;;;;9.40;6.47;;;;;;;;;;4963410;28;20621;-86
2021/12/05 23:38:26;;;;;;;11.07;7.43;;;;;;;;;;4964665;28;20642;-87
2021/12/05 23:41:30;;;;;;;10.50;7.17;;;;;;;;;;4965186;28;20606;-87
2021/12/05 23:44:34;;;;;;;9.83;7.17;;;;;;;;;;4953470;28;20606;-87
2021/12/05 23:47:39;;;;;;;10.60;7.03;;;;;;;;;;4975996;28;21198;-86